sensor_id;sensor_type;location;lat;lon;timestamp;P1;durP1;ratioP1;P2;durP2;ratioP2
71562;SDS011;59391;52.504;13.438;2023-11-19T00:00:34;16.30;;;10.47;;
71562;SDS011;59391;52.504;13.438;2023-11-19T00:03:00;20.65;;;10.63;;
71562;SDS011;59391;52.504;13.438;2023-11-19T00:05:26;15.65;;;9.98;;
71562;SDS011;59391;52.504;13.438;2023-11-19T00:07:52;17.10;;;10.70;;
71562;SDS011;59391;52.504;13.438;2023-11-19T00:10:18;15.77;;;9.77;;
71562;SDS011;59391;52.504;13.438;2023-11-19T00:12:46;15.23;;;9.80;;
71562;SDS011;59391;52.504;13.438;2023-11-19T00:15:14;14.43;;;10.00;;
71562;SDS011;59391;52.504;13.438;2023-11-19T00:17:44;14.63;;;9.98;;
71562;SDS011;59391;52.504;13.438;2023-11-19T00:20:11;15.25;;;9.90;;
71562;SDS011;59391;52.504;13.438;2023-11-19T00:22:44;16.07;;;10.20;;
71562;SDS011;59391;52.504;13.438;2023-11-19T00:25:16;15.23;;;10.13;;
71562;SDS011;59391;52.504;13.438;2023-11-19T00:27:46;15.65;;;9.32;;
71562;SDS011;59391;52.504;13.438;2023-11-19T00:30:12;16.20;;;10.38;;
71562;SDS011;59391;52.504;13.438;2023-11-19T00:32:39;16.23;;;9.63;;
71562;SDS011;59391;52.504;13.438;2023-11-19T00:35:06;15.03;;;9.80;;
71562;SDS011;59391;52.504;13.438;2023-11-19T00:37:32;19.23;;;13.27;;
71562;SDS011;59391;52.504;13.438;2023-11-19T00:39:58;14.88;;;9.82;;
71562;SDS011;59391;52.504;13.438;2023-11-19T00:42:24;15.90;;;10.53;;
71562;SDS011;59391;52.504;13.438;2023-11-19T00:44:52;16.60;;;10.15;;
71562;SDS011;59391;52.504;13.438;2023-11-19T00:47:18;16.35;;;10.10;;
71562;SDS011;59391;52.504;13.438;2023-11-19T00:49:45;17.77;;;10.95;;
71562;SDS011;59391;52.504;13.438;2023-11-19T00:52:14;15.83;;;9.67;;
71562;SDS011;59391;52.504;13.438;2023-11-19T00:54:40;14.60;;;9.48;;
71562;SDS011;59391;52.504;13.438;2023-11-19T00:57:06;16.50;;;9.85;;
71562;SDS011;59391;52.504;13.438;2023-11-19T00:59:31;14.30;;;8.63;;
71562;SDS011;59391;52.504;13.438;2023-11-19T01:01:57;14.10;;;8.73;;
71562;SDS011;59391;52.504;13.438;2023-11-19T01:04:27;17.03;;;9.80;;
71562;SDS011;59391;52.504;13.438;2023-11-19T01:07:01;14.60;;;9.68;;
71562;SDS011;59391;52.504;13.438;2023-11-19T01:09:37;14.23;;;9.57;;
71562;SDS011;59391;52.504;13.438;2023-11-19T01:12:03;13.88;;;9.07;;
71562;SDS011;59391;52.504;13.438;2023-11-19T01:14:30;15.45;;;9.02;;
71562;SDS011;59391;52.504;13.438;2023-11-19T01:16:55;15.37;;;9.40;;
71562;SDS011;59391;52.504;13.438;2023-11-19T01:19:21;14.57;;;8.95;;
71562;SDS011;59391;52.504;13.438;2023-11-19T01:21:48;14.63;;;9.00;;
71562;SDS011;59391;52.504;13.438;2023-11-19T01:24:14;13.07;;;8.60;;
71562;SDS011;59391;52.504;13.438;2023-11-19T01:26:40;14.45;;;8.77;;
71562;SDS011;59391;52.504;13.438;2023-11-19T01:29:14;14.43;;;9.32;;
71562;SDS011;59391;52.504;13.438;2023-11-19T01:31:43;14.80;;;9.32;;
71562;SDS011;59391;52.504;13.438;2023-11-19T01:34:11;20.43;;;11.10;;
71562;SDS011;59391;52.504;13.438;2023-11-19T01:36:37;12.93;;;8.60;;
71562;SDS011;59391;52.504;13.438;2023-11-19T01:39:03;15.33;;;9.47;;
71562;SDS011;59391;52.504;13.438;2023-11-19T01:41:34;14.18;;;9.80;;
71562;SDS011;59391;52.504;13.438;2023-11-19T01:44:01;14.38;;;8.25;;
71562;SDS011;59391;52.504;13.438;2023-11-19T01:46:27;14.27;;;8.38;;
71562;SDS011;59391;52.504;13.438;2023-11-19T01:48:53;15.27;;;8.70;;
71562;SDS011;59391;52.504;13.438;2023-11-19T01:51:20;17.73;;;9.30;;
71562;SDS011;59391;52.504;13.438;2023-11-19T01:53:47;17.45;;;9.57;;
71562;SDS011;59391;52.504;13.438;2023-11-19T01:56:14;14.48;;;8.65;;
71562;SDS011;59391;52.504;13.438;2023-11-19T01:58:41;14.20;;;8.88;;
71562;SDS011;59391;52.504;13.438;2023-11-19T02:01:10;15.77;;;9.93;;
71562;SDS011;59391;52.504;13.438;2023-11-19T02:03:37;13.57;;;9.17;;
71562;SDS011;59391;52.504;13.438;2023-11-19T02:06:03;15.45;;;9.23;;
71562;SDS011;59391;52.504;13.438;2023-11-19T02:08:30;13.07;;;8.40;;
71562;SDS011;59391;52.504;13.438;2023-11-19T02:10:56;14.43;;;8.47;;
71562;SDS011;59391;52.504;13.438;2023-11-19T02:13:22;17.27;;;9.35;;
71562;SDS011;59391;52.504;13.438;2023-11-19T02:15:47;16.77;;;9.63;;
71562;SDS011;59391;52.504;13.438;2023-11-19T02:18:17;13.53;;;8.37;;
71562;SDS011;59391;52.504;13.438;2023-11-19T02:20:47;14.43;;;9.02;;
71562;SDS011;59391;52.504;13.438;2023-11-19T02:23:16;18.88;;;9.48;;
71562;SDS011;59391;52.504;13.438;2023-11-19T02:25:47;19.90;;;9.70;;
71562;SDS011;59391;52.504;13.438;2023-11-19T02:28:33;21.35;;;10.38;;
71562;SDS011;59391;52.504;13.438;2023-11-19T02:31:00;12.65;;;8.70;;
71562;SDS011;59391;52.504;13.438;2023-11-19T02:33:26;14.80;;;8.65;;
71562;SDS011;59391;52.504;13.438;2023-11-19T02:35:52;15.35;;;9.30;;
71562;SDS011;59391;52.504;13.438;2023-11-19T02:38:17;16.50;;;9.83;;
71562;SDS011;59391;52.504;13.438;2023-11-19T02:40:43;14.40;;;8.90;;
71562;SDS011;59391;52.504;13.438;2023-11-19T02:43:09;13.07;;;8.30;;
71562;SDS011;59391;52.504;13.438;2023-11-19T02:45:34;12.13;;;8.68;;
71562;SDS011;59391;52.504;13.438;2023-11-19T02:48:00;12.20;;;8.47;;
71562;SDS011;59391;52.504;13.438;2023-11-19T02:50:26;11.85;;;7.53;;
71562;SDS011;59391;52.504;13.438;2023-11-19T02:52:53;12.38;;;7.75;;
71562;SDS011;59391;52.504;13.438;2023-11-19T02:55:23;13.15;;;8.13;;
71562;SDS011;59391;52.504;13.438;2023-11-19T02:57:50;18.53;;;8.87;;
71562;SDS011;59391;52.504;13.438;2023-11-19T03:00:18;10.88;;;6.93;;
71562;SDS011;59391;52.504;13.438;2023-11-19T03:02:50;12.75;;;7.80;;
71562;SDS011;59391;52.504;13.438;2023-11-19T03:05:24;11.00;;;7.10;;
71562;SDS011;59391;52.504;13.438;2023-11-19T03:07:51;11.30;;;7.47;;
71562;SDS011;59391;52.504;13.438;2023-11-19T03:10:17;10.10;;;6.83;;
71562;SDS011;59391;52.504;13.438;2023-11-19T03:12:43;10.90;;;7.72;;
71562;SDS011;59391;52.504;13.438;2023-11-19T03:15:10;9.93;;;7.00;;
71562;SDS011;59391;52.504;13.438;2023-11-19T03:17:40;10.95;;;6.88;;
71562;SDS011;59391;52.504;13.438;2023-11-19T03:20:08;9.43;;;6.67;;
71562;SDS011;59391;52.504;13.438;2023-11-19T03:22:39;9.32;;;6.85;;
71562;SDS011;59391;52.504;13.438;2023-11-19T03:25:06;9.40;;;6.57;;
71562;SDS011;59391;52.504;13.438;2023-11-19T03:27:34;10.95;;;7.25;;
71562;SDS011;59391;52.504;13.438;2023-11-19T03:30:09;9.98;;;7.22;;
71562;SDS011;59391;52.504;13.438;2023-11-19T03:32:35;9.90;;;6.87;;
71562;SDS011;59391;52.504;13.438;2023-11-19T03:35:01;11.27;;;7.00;;
71562;SDS011;59391;52.504;13.438;2023-11-19T03:37:29;10.20;;;7.00;;
71562;SDS011;59391;52.504;13.438;2023-11-19T03:39:57;9.38;;;7.05;;
71562;SDS011;59391;52.504;13.438;2023-11-19T03:42:24;10.60;;;7.10;;
71562;SDS011;59391;52.504;13.438;2023-11-19T03:44:52;10.90;;;6.75;;
71562;SDS011;59391;52.504;13.438;2023-11-19T03:47:20;13.27;;;7.70;;
71562;SDS011;59391;52.504;13.438;2023-11-19T03:49:49;11.43;;;8.03;;
71562;SDS011;59391;52.504;13.438;2023-11-19T03:52:16;11.60;;;8.10;;
71562;SDS011;59391;52.504;13.438;2023-11-19T03:54:42;12.40;;;8.10;;
71562;SDS011;59391;52.504;13.438;2023-11-19T03:57:08;11.23;;;7.82;;
71562;SDS011;59391;52.504;13.438;2023-11-19T03:59:37;11.77;;;7.85;;
71562;SDS011;59391;52.504;13.438;2023-11-19T04:02:03;14.37;;;8.87;;
71562;SDS011;59391;52.504;13.438;2023-11-19T04:04:28;13.93;;;9.00;;
71562;SDS011;59391;52.504;13.438;2023-11-19T04:06:54;13.10;;;8.70;;
71562;SDS011;59391;52.504;13.438;2023-11-19T04:09:21;12.85;;;8.80;;
71562;SDS011;59391;52.504;13.438;2023-11-19T04:11:47;13.43;;;8.38;;
71562;SDS011;59391;52.504;13.438;2023-11-19T04:14:13;18.60;;;8.95;;
71562;SDS011;59391;52.504;13.438;2023-11-19T04:16:39;14.30;;;9.10;;
71562;SDS011;59391;52.504;13.438;2023-11-19T04:19:06;12.73;;;8.95;;
71562;SDS011;59391;52.504;13.438;2023-11-19T04:21:32;15.60;;;9.27;;
71562;SDS011;59391;52.504;13.438;2023-11-19T04:23:58;15.05;;;10.05;;
71562;SDS011;59391;52.504;13.438;2023-11-19T04:26:24;19.30;;;11.47;;
71562;SDS011;59391;52.504;13.438;2023-11-19T04:28:49;18.42;;;10.30;;
71562;SDS011;59391;52.504;13.438;2023-11-19T04:31:18;15.87;;;9.37;;
71562;SDS011;59391;52.504;13.438;2023-11-19T04:33:44;15.23;;;9.88;;
71562;SDS011;59391;52.504;13.438;2023-11-19T04:36:10;16.83;;;9.70;;
71562;SDS011;59391;52.504;13.438;2023-11-19T04:38:36;16.33;;;9.50;;
71562;SDS011;59391;52.504;13.438;2023-11-19T04:41:03;14.48;;;9.55;;
71562;SDS011;59391;52.504;13.438;2023-11-19T04:43:30;14.95;;;10.05;;
71562;SDS011;59391;52.504;13.438;2023-11-19T04:45:57;15.37;;;9.27;;
71562;SDS011;59391;52.504;13.438;2023-11-19T04:48:23;14.82;;;9.50;;
71562;SDS011;59391;52.504;13.438;2023-11-19T04:50:49;18.88;;;10.88;;
71562;SDS011;59391;52.504;13.438;2023-11-19T04:53:18;16.25;;;9.48;;
71562;SDS011;59391;52.504;13.438;2023-11-19T04:55:43;16.40;;;10.20;;
71562;SDS011;59391;52.504;13.438;2023-11-19T04:58:09;23.35;;;12.43;;
71562;SDS011;59391;52.504;13.438;2023-11-19T05:00:35;17.00;;;10.80;;
71562;SDS011;59391;52.504;13.438;2023-11-19T05:03:00;15.95;;;9.65;;
71562;SDS011;59391;52.504;13.438;2023-11-19T05:05:26;17.13;;;10.80;;
71562;SDS011;59391;52.504;13.438;2023-11-19T05:07:52;17.45;;;10.90;;
71562;SDS011;59391;52.504;13.438;2023-11-19T05:10:17;17.90;;;10.87;;
71562;SDS011;59391;52.504;13.438;2023-11-19T05:12:43;19.17;;;11.15;;
71562;SDS011;59391;52.504;13.438;2023-11-19T05:15:09;18.48;;;11.30;;
71562;SDS011;59391;52.504;13.438;2023-11-19T05:17:36;16.38;;;10.50;;
71562;SDS011;59391;52.504;13.438;2023-11-19T05:20:02;17.30;;;10.57;;
71562;SDS011;59391;52.504;13.438;2023-11-19T05:22:29;18.33;;;11.02;;
71562;SDS011;59391;52.504;13.438;2023-11-19T05:24:54;18.47;;;11.03;;
71562;SDS011;59391;52.504;13.438;2023-11-19T05:27:20;20.83;;;10.30;;
71562;SDS011;59391;52.504;13.438;2023-11-19T05:29:47;20.05;;;11.73;;
71562;SDS011;59391;52.504;13.438;2023-11-19T05:32:12;16.70;;;10.97;;
71562;SDS011;59391;52.504;13.438;2023-11-19T05:34:38;18.57;;;11.50;;
71562;SDS011;59391;52.504;13.438;2023-11-19T05:37:03;17.60;;;10.30;;
71562;SDS011;59391;52.504;13.438;2023-11-19T05:39:30;19.58;;;11.27;;
71562;SDS011;59391;52.504;13.438;2023-11-19T05:41:56;21.00;;;12.27;;
71562;SDS011;59391;52.504;13.438;2023-11-19T05:44:21;18.70;;;11.23;;
71562;SDS011;59391;52.504;13.438;2023-11-19T05:46:47;16.52;;;10.13;;
71562;SDS011;59391;52.504;13.438;2023-11-19T05:49:13;16.80;;;10.53;;
71562;SDS011;59391;52.504;13.438;2023-11-19T05:51:38;17.27;;;11.27;;
71562;SDS011;59391;52.504;13.438;2023-11-19T05:54:09;16.55;;;10.50;;
71562;SDS011;59391;52.504;13.438;2023-11-19T05:56:35;16.25;;;10.15;;
71562;SDS011;59391;52.504;13.438;2023-11-19T05:59:01;18.67;;;11.10;;
71562;SDS011;59391;52.504;13.438;2023-11-19T06:01:39;15.30;;;10.20;;
71562;SDS011;59391;52.504;13.438;2023-11-19T06:04:06;16.23;;;11.40;;
71562;SDS011;59391;52.504;13.438;2023-11-19T06:06:32;18.40;;;11.50;;
71562;SDS011;59391;52.504;13.438;2023-11-19T06:08:58;16.02;;;10.05;;
71562;SDS011;59391;52.504;13.438;2023-11-19T06:11:23;17.70;;;11.10;;
71562;SDS011;59391;52.504;13.438;2023-11-19T06:13:51;16.73;;;11.02;;
71562;SDS011;59391;52.504;13.438;2023-11-19T06:16:17;15.57;;;10.10;;
71562;SDS011;59391;52.504;13.438;2023-11-19T06:18:43;16.05;;;9.80;;
71562;SDS011;59391;52.504;13.438;2023-11-19T06:21:09;16.38;;;9.70;;
71562;SDS011;59391;52.504;13.438;2023-11-19T06:23:36;16.23;;;10.10;;
71562;SDS011;59391;52.504;13.438;2023-11-19T06:26:02;14.50;;;9.60;;
71562;SDS011;59391;52.504;13.438;2023-11-19T06:28:28;16.38;;;10.50;;
71562;SDS011;59391;52.504;13.438;2023-11-19T06:30:53;15.57;;;9.63;;
71562;SDS011;59391;52.504;13.438;2023-11-19T06:33:19;14.95;;;9.93;;
71562;SDS011;59391;52.504;13.438;2023-11-19T06:35:45;13.80;;;9.40;;
71562;SDS011;59391;52.504;13.438;2023-11-19T06:38:10;15.82;;;9.75;;
71562;SDS011;59391;52.504;13.438;2023-11-19T06:40:36;15.93;;;10.10;;
71562;SDS011;59391;52.504;13.438;2023-11-19T06:43:02;18.13;;;11.40;;
71562;SDS011;59391;52.504;13.438;2023-11-19T06:45:29;16.27;;;10.17;;
71562;SDS011;59391;52.504;13.438;2023-11-19T06:47:55;14.10;;;9.38;;
71562;SDS011;59391;52.504;13.438;2023-11-19T06:50:20;16.27;;;9.65;;
71562;SDS011;59391;52.504;13.438;2023-11-19T06:52:46;15.20;;;10.20;;
71562;SDS011;59391;52.504;13.438;2023-11-19T06:55:12;17.60;;;10.73;;
71562;SDS011;59391;52.504;13.438;2023-11-19T06:57:38;14.55;;;10.00;;
71562;SDS011;59391;52.504;13.438;2023-11-19T07:00:05;15.10;;;9.77;;
71562;SDS011;59391;52.504;13.438;2023-11-19T07:02:31;17.50;;;10.77;;
71562;SDS011;59391;52.504;13.438;2023-11-19T07:04:57;14.00;;;9.50;;
71562;SDS011;59391;52.504;13.438;2023-11-19T07:07:23;18.63;;;10.70;;
71562;SDS011;59391;52.504;13.438;2023-11-19T07:09:49;14.83;;;9.20;;
71562;SDS011;59391;52.504;13.438;2023-11-19T07:12:15;14.85;;;9.13;;
71562;SDS011;59391;52.504;13.438;2023-11-19T07:14:41;16.40;;;9.80;;
71562;SDS011;59391;52.504;13.438;2023-11-19T07:17:09;13.50;;;9.23;;
71562;SDS011;59391;52.504;13.438;2023-11-19T07:19:35;14.05;;;9.13;;
71562;SDS011;59391;52.504;13.438;2023-11-19T07:22:02;13.00;;;8.95;;
71562;SDS011;59391;52.504;13.438;2023-11-19T07:24:29;15.50;;;9.17;;
71562;SDS011;59391;52.504;13.438;2023-11-19T07:26:55;12.07;;;8.52;;
71562;SDS011;59391;52.504;13.438;2023-11-19T07:29:20;13.17;;;8.27;;
71562;SDS011;59391;52.504;13.438;2023-11-19T07:31:49;16.95;;;9.80;;
71562;SDS011;59391;52.504;13.438;2023-11-19T07:34:14;15.02;;;9.73;;
71562;SDS011;59391;52.504;13.438;2023-11-19T07:36:40;20.60;;;11.83;;
71562;SDS011;59391;52.504;13.438;2023-11-19T07:39:06;16.73;;;11.43;;
71562;SDS011;59391;52.504;13.438;2023-11-19T07:41:33;14.02;;;8.98;;
71562;SDS011;59391;52.504;13.438;2023-11-19T07:43:59;12.30;;;8.77;;
71562;SDS011;59391;52.504;13.438;2023-11-19T07:46:25;12.68;;;8.35;;
71562;SDS011;59391;52.504;13.438;2023-11-19T07:48:52;11.90;;;7.72;;
71562;SDS011;59391;52.504;13.438;2023-11-19T07:51:18;11.98;;;8.35;;
71562;SDS011;59391;52.504;13.438;2023-11-19T07:53:43;13.23;;;9.03;;
71562;SDS011;59391;52.504;13.438;2023-11-19T07:56:09;13.23;;;8.60;;
71562;SDS011;59391;52.504;13.438;2023-11-19T07:58:35;13.82;;;9.18;;
71562;SDS011;59391;52.504;13.438;2023-11-19T08:01:01;16.50;;;10.17;;
71562;SDS011;59391;52.504;13.438;2023-11-19T08:03:28;14.00;;;9.38;;
71562;SDS011;59391;52.504;13.438;2023-11-19T08:05:57;14.88;;;9.10;;
71562;SDS011;59391;52.504;13.438;2023-11-19T08:08:23;13.98;;;8.57;;
71562;SDS011;59391;52.504;13.438;2023-11-19T08:10:49;13.43;;;8.45;;
71562;SDS011;59391;52.504;13.438;2023-11-19T08:13:16;13.73;;;9.35;;
71562;SDS011;59391;52.504;13.438;2023-11-19T08:15:43;13.68;;;8.80;;
71562;SDS011;59391;52.504;13.438;2023-11-19T08:18:08;14.80;;;9.88;;
71562;SDS011;59391;52.504;13.438;2023-11-19T08:20:34;17.90;;;12.02;;
71562;SDS011;59391;52.504;13.438;2023-11-19T08:23:01;12.30;;;8.50;;
71562;SDS011;59391;52.504;13.438;2023-11-19T08:25:28;13.45;;;8.70;;
71562;SDS011;59391;52.504;13.438;2023-11-19T08:27:54;12.32;;;8.85;;
71562;SDS011;59391;52.504;13.438;2023-11-19T08:30:19;13.57;;;8.73;;
71562;SDS011;59391;52.504;13.438;2023-11-19T08:32:45;13.77;;;9.50;;
71562;SDS011;59391;52.504;13.438;2023-11-19T08:35:11;13.68;;;9.45;;
71562;SDS011;59391;52.504;13.438;2023-11-19T08:37:36;15.80;;;11.60;;
71562;SDS011;59391;52.504;13.438;2023-11-19T08:40:03;15.32;;;10.25;;
71562;SDS011;59391;52.504;13.438;2023-11-19T08:42:30;19.40;;;12.88;;
71562;SDS011;59391;52.504;13.438;2023-11-19T08:44:55;51.20;;;33.03;;
71562;SDS011;59391;52.504;13.438;2023-11-19T08:47:21;17.63;;;11.27;;
71562;SDS011;59391;52.504;13.438;2023-11-19T08:49:48;13.27;;;9.45;;
71562;SDS011;59391;52.504;13.438;2023-11-19T08:52:20;18.23;;;11.90;;
71562;SDS011;59391;52.504;13.438;2023-11-19T08:54:45;23.50;;;15.83;;
71562;SDS011;59391;52.504;13.438;2023-11-19T08:57:11;20.83;;;12.10;;
71562;SDS011;59391;52.504;13.438;2023-11-19T08:59:37;18.50;;;11.35;;
71562;SDS011;59391;52.504;13.438;2023-11-19T09:02:04;17.95;;;11.13;;
71562;SDS011;59391;52.504;13.438;2023-11-19T09:04:30;21.08;;;13.30;;
71562;SDS011;59391;52.504;13.438;2023-11-19T09:06:57;38.97;;;17.57;;
71562;SDS011;59391;52.504;13.438;2023-11-19T09:09:23;25.80;;;13.88;;
71562;SDS011;59391;52.504;13.438;2023-11-19T09:11:49;14.97;;;10.33;;
71562;SDS011;59391;52.504;13.438;2023-11-19T09:14:14;27.10;;;16.95;;
71562;SDS011;59391;52.504;13.438;2023-11-19T09:16:40;36.03;;;19.93;;
71562;SDS011;59391;52.504;13.438;2023-11-19T09:19:06;33.90;;;16.52;;
71562;SDS011;59391;52.504;13.438;2023-11-19T09:21:31;25.57;;;14.03;;
71562;SDS011;59391;52.504;13.438;2023-11-19T09:23:59;52.10;;;21.60;;
71562;SDS011;59391;52.504;13.438;2023-11-19T09:26:25;15.70;;;10.53;;
71562;SDS011;59391;52.504;13.438;2023-11-19T09:28:50;40.17;;;17.15;;
71562;SDS011;59391;52.504;13.438;2023-11-19T09:31:16;13.63;;;8.90;;
71562;SDS011;59391;52.504;13.438;2023-11-19T09:33:46;27.55;;;12.10;;
71562;SDS011;59391;52.504;13.438;2023-11-19T09:36:12;20.05;;;10.07;;
71562;SDS011;59391;52.504;13.438;2023-11-19T09:38:41;21.10;;;10.25;;
71562;SDS011;59391;52.504;13.438;2023-11-19T09:41:09;15.50;;;9.18;;
71562;SDS011;59391;52.504;13.438;2023-11-19T09:43:41;50.33;;;18.57;;
71562;SDS011;59391;52.504;13.438;2023-11-19T09:46:10;22.33;;;11.55;;
71562;SDS011;59391;52.504;13.438;2023-11-19T09:48:41;15.43;;;8.10;;
71562;SDS011;59391;52.504;13.438;2023-11-19T09:51:10;10.07;;;6.60;;
71562;SDS011;59391;52.504;13.438;2023-11-19T09:53:37;35.58;;;15.68;;
71562;SDS011;59391;52.504;13.438;2023-11-19T09:56:03;24.33;;;11.63;;
71562;SDS011;59391;52.504;13.438;2023-11-19T09:58:30;26.20;;;12.32;;
71562;SDS011;59391;52.504;13.438;2023-11-19T10:00:57;14.27;;;8.07;;
71562;SDS011;59391;52.504;13.438;2023-11-19T10:03:24;14.05;;;8.15;;
71562;SDS011;59391;52.504;13.438;2023-11-19T10:06:00;16.80;;;9.15;;
71562;SDS011;59391;52.504;13.438;2023-11-19T10:08:27;18.43;;;9.83;;
71562;SDS011;59391;52.504;13.438;2023-11-19T10:10:53;13.27;;;8.05;;
71562;SDS011;59391;52.504;13.438;2023-11-19T10:13:18;16.13;;;8.87;;
71562;SDS011;59391;52.504;13.438;2023-11-19T10:15:44;12.63;;;6.95;;
71562;SDS011;59391;52.504;13.438;2023-11-19T10:18:11;10.85;;;6.47;;
71562;SDS011;59391;52.504;13.438;2023-11-19T10:20:40;19.95;;;9.43;;
71562;SDS011;59391;52.504;13.438;2023-11-19T10:23:07;12.80;;;7.65;;
71562;SDS011;59391;52.504;13.438;2023-11-19T10:25:33;12.80;;;7.10;;
71562;SDS011;59391;52.504;13.438;2023-11-19T10:27:59;13.77;;;7.07;;
71562;SDS011;59391;52.504;13.438;2023-11-19T10:30:31;18.30;;;8.75;;
71562;SDS011;59391;52.504;13.438;2023-11-19T10:33:08;13.57;;;7.32;;
71562;SDS011;59391;52.504;13.438;2023-11-19T10:35:52;9.23;;;5.95;;
71562;SDS011;59391;52.504;13.438;2023-11-19T10:38:21;12.38;;;5.45;;
71562;SDS011;59391;52.504;13.438;2023-11-19T10:40:49;12.55;;;5.63;;
71562;SDS011;59391;52.504;13.438;2023-11-19T10:43:18;11.15;;;5.53;;
71562;SDS011;59391;52.504;13.438;2023-11-19T10:45:47;14.25;;;6.90;;
71562;SDS011;59391;52.504;13.438;2023-11-19T10:48:13;9.40;;;5.30;;
71562;SDS011;59391;52.504;13.438;2023-11-19T10:50:39;13.18;;;6.10;;
71562;SDS011;59391;52.504;13.438;2023-11-19T10:53:08;19.50;;;8.80;;
71562;SDS011;59391;52.504;13.438;2023-11-19T10:55:37;23.90;;;10.27;;
71562;SDS011;59391;52.504;13.438;2023-11-19T10:58:05;14.85;;;6.18;;
71562;SDS011;59391;52.504;13.438;2023-11-19T11:00:43;10.73;;;5.57;;
71562;SDS011;59391;52.504;13.438;2023-11-19T11:03:19;9.27;;;4.75;;
71562;SDS011;59391;52.504;13.438;2023-11-19T11:05:50;11.53;;;5.40;;
71562;SDS011;59391;52.504;13.438;2023-11-19T11:08:18;9.13;;;4.88;;
71562;SDS011;59391;52.504;13.438;2023-11-19T11:10:47;12.25;;;5.50;;
71562;SDS011;59391;52.504;13.438;2023-11-19T11:13:22;11.05;;;5.25;;
71562;SDS011;59391;52.504;13.438;2023-11-19T11:15:50;12.65;;;4.72;;
71562;SDS011;59391;52.504;13.438;2023-11-19T11:18:16;9.87;;;5.23;;
71562;SDS011;59391;52.504;13.438;2023-11-19T11:20:45;13.35;;;5.40;;
71562;SDS011;59391;52.504;13.438;2023-11-19T11:29:27;11.02;;;5.10;;
71562;SDS011;59391;52.504;13.438;2023-11-19T11:32:08;12.43;;;5.47;;
71562;SDS011;59391;52.504;13.438;2023-11-19T11:38:21;14.10;;;5.40;;
71562;SDS011;59391;52.504;13.438;2023-11-19T11:43:51;13.57;;;5.72;;
71562;SDS011;59391;52.504;13.438;2023-11-19T11:49:07;15.07;;;6.15;;
71562;SDS011;59391;52.504;13.438;2023-11-19T11:54:08;18.92;;;6.68;;
71562;SDS011;59391;52.504;13.438;2023-11-19T11:57:29;14.32;;;6.03;;
71562;SDS011;59391;52.504;13.438;2023-11-19T11:59:48;19.07;;;7.73;;
71562;SDS011;59391;52.504;13.438;2023-11-19T12:02:16;16.77;;;7.03;;
71562;SDS011;59391;52.504;13.438;2023-11-19T12:04:49;12.82;;;6.43;;
71562;SDS011;59391;52.504;13.438;2023-11-19T12:07:18;15.70;;;6.13;;
71562;SDS011;59391;52.504;13.438;2023-11-19T12:09:55;17.05;;;5.88;;
71562;SDS011;59391;52.504;13.438;2023-11-19T12:12:36;15.40;;;5.70;;
71562;SDS011;59391;52.504;13.438;2023-11-19T12:15:05;13.55;;;5.95;;
71562;SDS011;59391;52.504;13.438;2023-11-19T12:17:41;17.25;;;6.40;;
71562;SDS011;59391;52.504;13.438;2023-11-19T12:20:09;16.85;;;5.78;;
71562;SDS011;59391;52.504;13.438;2023-11-19T12:22:39;15.93;;;5.82;;
71562;SDS011;59391;52.504;13.438;2023-11-19T12:25:07;18.47;;;6.10;;
71562;SDS011;59391;52.504;13.438;2023-11-19T12:27:35;19.35;;;6.55;;
71562;SDS011;59391;52.504;13.438;2023-11-19T12:30:05;17.02;;;6.22;;
71562;SDS011;59391;52.504;13.438;2023-11-19T12:35:08;18.77;;;7.07;;
71562;SDS011;59391;52.504;13.438;2023-11-19T12:37:44;17.07;;;6.27;;
71562;SDS011;59391;52.504;13.438;2023-11-19T12:40:21;16.13;;;6.35;;
71562;SDS011;59391;52.504;13.438;2023-11-19T12:42:50;19.77;;;6.50;;
71562;SDS011;59391;52.504;13.438;2023-11-19T12:45:20;16.13;;;5.63;;
71562;SDS011;59391;52.504;13.438;2023-11-19T12:47:48;16.80;;;6.50;;
71562;SDS011;59391;52.504;13.438;2023-11-19T12:50:15;18.07;;;6.13;;
71562;SDS011;59391;52.504;13.438;2023-11-19T12:52:57;14.38;;;6.03;;
71562;SDS011;59391;52.504;13.438;2023-11-19T12:55:27;16.13;;;6.20;;
71562;SDS011;59391;52.504;13.438;2023-11-19T12:57:54;18.63;;;6.05;;
71562;SDS011;59391;52.504;13.438;2023-11-19T13:00:23;16.52;;;6.18;;
71562;SDS011;59391;52.504;13.438;2023-11-19T13:02:52;16.10;;;6.37;;
71562;SDS011;59391;52.504;13.438;2023-11-19T13:08:05;20.20;;;6.30;;
71562;SDS011;59391;52.504;13.438;2023-11-19T13:13:18;20.92;;;6.53;;
71562;SDS011;59391;52.504;13.438;2023-11-19T13:15:44;20.03;;;6.43;;
71562;SDS011;59391;52.504;13.438;2023-11-19T13:18:11;18.45;;;6.65;;
71562;SDS011;59391;52.504;13.438;2023-11-19T13:20:37;16.90;;;5.85;;
71562;SDS011;59391;52.504;13.438;2023-11-19T13:23:06;18.13;;;6.32;;
71562;SDS011;59391;52.504;13.438;2023-11-19T13:25:35;17.05;;;6.45;;
71562;SDS011;59391;52.504;13.438;2023-11-19T13:28:01;18.27;;;6.03;;
71562;SDS011;59391;52.504;13.438;2023-11-19T13:30:27;19.48;;;6.22;;
71562;SDS011;59391;52.504;13.438;2023-11-19T13:32:54;17.67;;;6.10;;
71562;SDS011;59391;52.504;13.438;2023-11-19T13:35:21;15.10;;;5.45;;
71562;SDS011;59391;52.504;13.438;2023-11-19T13:37:50;17.20;;;5.88;;
71562;SDS011;59391;52.504;13.438;2023-11-19T13:40:16;16.58;;;5.78;;
71562;SDS011;59391;52.504;13.438;2023-11-19T13:42:44;21.08;;;6.95;;
71562;SDS011;59391;52.504;13.438;2023-11-19T13:45:13;19.75;;;6.68;;
71562;SDS011;59391;52.504;13.438;2023-11-19T13:47:41;15.40;;;6.53;;
71562;SDS011;59391;52.504;13.438;2023-11-19T13:50:12;17.23;;;6.13;;
71562;SDS011;59391;52.504;13.438;2023-11-19T13:52:41;19.90;;;7.38;;
71562;SDS011;59391;52.504;13.438;2023-11-19T13:55:12;24.25;;;6.93;;
71562;SDS011;59391;52.504;13.438;2023-11-19T13:57:38;22.83;;;6.95;;
71562;SDS011;59391;52.504;13.438;2023-11-19T14:00:07;20.55;;;7.43;;
71562;SDS011;59391;52.504;13.438;2023-11-19T14:02:46;20.92;;;7.63;;
71562;SDS011;59391;52.504;13.438;2023-11-19T14:05:12;15.45;;;5.97;;
71562;SDS011;59391;52.504;13.438;2023-11-19T14:07:43;20.63;;;6.95;;
71562;SDS011;59391;52.504;13.438;2023-11-19T14:10:10;18.30;;;6.72;;
71562;SDS011;59391;52.504;13.438;2023-11-19T14:12:36;21.00;;;7.18;;
71562;SDS011;59391;52.504;13.438;2023-11-19T14:15:03;19.17;;;6.35;;
71562;SDS011;59391;52.504;13.438;2023-11-19T14:17:34;22.33;;;7.03;;
71562;SDS011;59391;52.504;13.438;2023-11-19T14:20:00;23.55;;;9.02;;
71562;SDS011;59391;52.504;13.438;2023-11-19T14:22:31;22.03;;;8.70;;
71562;SDS011;59391;52.504;13.438;2023-11-19T14:24:56;27.50;;;9.35;;
71562;SDS011;59391;52.504;13.438;2023-11-19T14:27:22;31.03;;;11.40;;
71562;SDS011;59391;52.504;13.438;2023-11-19T14:29:50;22.33;;;8.13;;
71562;SDS011;59391;52.504;13.438;2023-11-19T14:32:16;20.15;;;7.47;;
71562;SDS011;59391;52.504;13.438;2023-11-19T14:34:42;19.98;;;7.70;;
71562;SDS011;59391;52.504;13.438;2023-11-19T14:37:08;23.90;;;8.13;;
71562;SDS011;59391;52.504;13.438;2023-11-19T14:39:34;25.33;;;8.60;;
71562;SDS011;59391;52.504;13.438;2023-11-19T14:42:00;21.97;;;7.77;;
71562;SDS011;59391;52.504;13.438;2023-11-19T14:44:29;18.17;;;7.82;;
71562;SDS011;59391;52.504;13.438;2023-11-19T14:46:55;21.52;;;7.38;;